createdAt,value
2023-03-10T00:01:51.571Z,100.00
2023-03-10T00:04:21.885Z,100.00
2023-03-10T00:06:53.000Z,100.00
2023-03-10T00:09:22.017Z,100.00
2023-03-10T00:11:50.929Z,100.00
2023-03-10T00:14:22.546Z,100.00
2023-03-10T00:16:51.467Z,100.00
2023-03-10T00:19:20.385Z,100.00
2023-03-10T00:21:49.317Z,100.00
2023-03-10T00:24:18.206Z,100.00
2023-03-10T00:26:47.126Z,100.00
2023-03-10T00:29:16.207Z,100.00
2023-03-10T00:31:48.259Z,100.00
2023-03-10T00:34:17.340Z,100.00
2023-03-10T00:36:46.314Z,100.00
2023-03-10T00:39:15.661Z,100.00
2023-03-10T00:41:44.898Z,100.00
2023-03-10T00:44:13.886Z,100.00
2023-03-10T00:46:42.921Z,100.00
2023-03-10T00:49:19.235Z,100.00
2023-03-10T00:51:48.233Z,100.00
2023-03-10T00:54:17.198Z,100.00
2023-03-10T00:56:46.398Z,100.00
2023-03-10T00:59:15.366Z,100.00
2023-03-10T01:01:44.342Z,100.00
2023-03-10T01:04:19.040Z,100.00
2023-03-10T01:06:48.515Z,100.00
2023-03-10T01:09:18.039Z,100.00
2023-03-10T01:11:47.592Z,100.00
2023-03-10T01:14:18.269Z,100.00
2023-03-10T01:16:47.386Z,100.00
2023-03-10T01:19:18.559Z,100.00
2023-03-10T01:21:50.287Z,100.00
2023-03-10T01:24:19.397Z,100.00
2023-03-10T01:26:48.340Z,100.00
2023-03-10T01:29:17.298Z,100.00
2023-03-10T01:31:46.338Z,100.00
2023-03-10T01:34:19.251Z,100.00
2023-03-10T01:36:56.927Z,100.00
2023-03-10T01:39:26.332Z,100.00
2023-03-10T01:41:55.341Z,100.00
2023-03-10T01:44:24.264Z,100.00
2023-03-10T01:46:56.057Z,100.00
2023-03-10T01:49:37.897Z,100.00
2023-03-10T01:52:13.490Z,100.00
2023-03-10T01:54:51.579Z,100.00
2023-03-10T01:57:25.809Z,100.00
2023-03-10T01:59:59.487Z,100.00
2023-03-10T02:02:34.586Z,100.00
2023-03-10T02:05:05.494Z,100.00
2023-03-10T02:07:37.694Z,100.00
2023-03-10T02:10:08.786Z,100.00
2023-03-10T02:12:38.175Z,100.00
2023-03-10T02:15:11.433Z,100.00
2023-03-10T02:17:41.667Z,100.00
2023-03-10T02:20:26.247Z,100.00
2023-03-10T02:22:57.668Z,100.00
2023-03-10T02:25:38.846Z,100.00
2023-03-10T02:28:09.312Z,100.00
2023-03-10T02:30:42.364Z,100.00
2023-03-10T02:33:15.017Z,100.00
2023-03-10T02:35:43.965Z,100.00
2023-03-10T02:38:16.740Z,100.00
2023-03-10T02:40:49.253Z,100.00
2023-03-10T02:43:27.155Z,100.00
2023-03-10T02:46:05.242Z,100.00
2023-03-10T02:48:40.332Z,100.00
2023-03-10T02:51:20.173Z,100.00
2023-03-10T02:53:49.506Z,100.00
2023-03-10T02:56:19.329Z,100.00
2023-03-10T02:58:51.514Z,100.00
2023-03-10T03:01:21.497Z,100.00
2023-03-10T03:03:50.655Z,100.00
2023-03-10T03:06:19.852Z,100.00
2023-03-10T03:08:49.141Z,100.00
2023-03-10T03:11:20.845Z,100.00
2023-03-10T03:13:51.207Z,100.00
2023-03-10T03:16:20.283Z,100.00
2023-03-10T03:18:53.982Z,100.00
2023-03-10T03:21:25.663Z,100.00
2023-03-10T03:23:56.085Z,100.00
2023-03-10T03:26:28.067Z,100.00
2023-03-10T03:29:03.754Z,100.00
2023-03-10T03:31:36.239Z,100.00
2023-03-10T03:34:11.110Z,100.00
2023-03-10T03:36:40.418Z,100.00
2023-03-10T03:39:11.486Z,100.00
2023-03-10T03:41:42.017Z,100.00
2023-03-10T03:44:13.551Z,100.00
2023-03-10T03:46:43.155Z,100.00
2023-03-10T03:49:12.065Z,100.00
2023-03-10T03:51:41.787Z,100.00
2023-03-10T03:54:11.924Z,100.00
2023-03-10T03:56:42.517Z,100.00
2023-03-10T03:59:15.301Z,100.00
2023-03-10T04:01:44.317Z,100.00
2023-03-10T04:04:13.431Z,100.00
2023-03-10T04:06:42.907Z,100.00
2023-03-10T04:09:13.776Z,100.00
2023-03-10T04:11:43.159Z,100.00
2023-03-10T04:14:12.363Z,100.00
2023-03-10T04:16:42.641Z,100.00
2023-03-10T04:19:11.934Z,100.00
2023-03-10T04:21:44.726Z,100.00
2023-03-10T04:24:15.351Z,100.00
2023-03-10T04:26:44.843Z,100.00
2023-03-10T04:29:14.246Z,100.00
2023-03-10T04:31:55.810Z,100.00
2023-03-10T04:34:35.399Z,100.00
2023-03-10T04:37:05.522Z,100.00
2023-03-10T04:39:35.650Z,100.00
2023-03-10T04:42:05.459Z,100.00
2023-03-10T04:44:35.474Z,100.00
2023-03-10T04:47:08.771Z,100.00
2023-03-10T04:49:39.059Z,100.00
2023-03-10T04:52:12.482Z,100.00
2023-03-10T04:54:41.640Z,100.00
2023-03-10T04:57:11.383Z,100.00
2023-03-10T04:59:43.151Z,100.00
2023-03-10T05:02:13.945Z,100.00
2023-03-10T05:04:43.146Z,100.00
2023-03-10T05:07:12.778Z,100.00
2023-03-10T05:09:48.374Z,100.00
2023-03-10T05:12:17.395Z,100.00
2023-03-10T05:14:46.556Z,100.00
2023-03-10T05:17:16.987Z,100.00
2023-03-10T05:19:46.726Z,100.00
2023-03-10T05:22:16.065Z,100.00
2023-03-10T05:24:45.096Z,100.00
2023-03-10T05:27:15.065Z,100.00
2023-03-10T05:29:46.375Z,100.00
2023-03-10T05:32:22.893Z,100.00
2023-03-10T05:34:52.350Z,100.00
2023-03-10T05:37:21.374Z,100.00
2023-03-10T05:39:50.556Z,100.00
2023-03-10T05:42:22.811Z,100.00
2023-03-10T05:44:52.547Z,100.00
2023-03-10T05:47:23.052Z,100.00
2023-03-10T05:49:52.082Z,100.00
2023-03-10T05:52:21.315Z,100.00
2023-03-10T05:54:50.895Z,100.00
2023-03-10T05:57:20.337Z,100.00
2023-03-10T05:59:49.305Z,100.00
2023-03-10T06:02:18.623Z,100.00
2023-03-10T06:04:48.959Z,100.00
2023-03-10T06:07:17.936Z,100.00
2023-03-10T06:09:46.992Z,100.00
2023-03-10T06:12:15.945Z,100.00
2023-03-10T06:14:44.924Z,100.00
2023-03-10T06:17:14.051Z,100.00
2023-03-10T06:19:43.254Z,100.00
2023-03-10T06:22:13.687Z,100.00
2023-03-10T06:24:43.031Z,100.00
2023-03-10T06:27:12.080Z,100.00
2023-03-10T06:29:41.038Z,100.00
2023-03-10T06:32:10.063Z,100.00
2023-03-10T06:34:39.037Z,100.00
2023-03-10T06:37:08.128Z,100.00
2023-03-10T06:39:40.585Z,100.00
2023-03-10T06:42:09.945Z,100.00
2023-03-10T06:44:39.047Z,100.00
2023-03-10T06:47:08.413Z,100.00
2023-03-10T06:49:38.629Z,100.00
2023-03-10T06:52:08.124Z,100.00
2023-03-10T06:54:37.933Z,100.00
2023-03-10T06:57:08.512Z,100.00
2023-03-10T06:59:37.471Z,100.00
2023-03-10T07:02:07.142Z,100.00
2023-03-10T07:04:36.113Z,100.00
2023-03-10T07:07:05.138Z,100.00
2023-03-10T07:09:34.120Z,100.00
2023-03-10T07:12:03.125Z,100.00
2023-03-10T07:14:33.477Z,100.00
2023-03-10T07:17:03.397Z,100.00
2023-03-10T07:19:32.683Z,100.00
2023-03-10T07:22:01.592Z,100.00
2023-03-10T07:24:30.493Z,100.00
2023-03-10T07:27:01.274Z,100.00
2023-03-10T07:29:30.625Z,100.00
2023-03-10T07:32:00.959Z,100.00
2023-03-10T07:34:29.895Z,100.00
2023-03-10T07:36:58.959Z,100.00
2023-03-10T07:39:28.016Z,100.00
2023-03-10T07:41:56.878Z,100.00
2023-03-10T07:44:25.767Z,100.00
2023-03-10T07:46:54.861Z,100.00
2023-03-10T07:49:25.158Z,100.00
2023-03-10T07:51:54.052Z,100.00
2023-03-10T07:54:23.016Z,100.00
2023-03-10T07:56:51.915Z,100.00
2023-03-10T07:59:20.897Z,100.00
2023-03-10T08:01:50.275Z,100.00
2023-03-10T08:04:19.513Z,100.00
2023-03-10T08:06:49.853Z,100.00
2023-03-10T08:09:19.078Z,100.00
2023-03-10T08:11:48.059Z,100.00
2023-03-10T08:14:20.904Z,100.00
2023-03-10T08:16:49.966Z,100.00
2023-03-10T08:19:19.593Z,100.00
2023-03-10T08:21:49.891Z,100.00
2023-03-10T08:24:18.763Z,100.00
2023-03-10T08:26:47.690Z,100.00
2023-03-10T08:29:16.833Z,100.00
2023-03-10T08:31:45.961Z,100.00
2023-03-10T08:34:15.613Z,98.10
2023-03-10T08:36:45.331Z,94.44
2023-03-10T08:39:15.664Z,92.76
2023-03-10T08:41:49.182Z,92.36
2023-03-10T08:44:20.305Z,89.24
2023-03-10T08:46:51.152Z,89.48
2023-03-10T08:49:22.399Z,88.30
2023-03-10T08:51:51.376Z,89.03
2023-03-10T08:54:23.886Z,85.48
2023-03-10T08:56:52.888Z,82.94
2023-03-10T08:59:22.058Z,88.79
2023-03-10T09:01:51.047Z,87.34
2023-03-10T09:04:20.189Z,86.07
2023-03-10T09:06:49.133Z,75.92
2023-03-10T09:09:18.092Z,76.80
2023-03-10T09:11:48.364Z,77.62
2023-03-10T09:14:17.669Z,77.92
2023-03-10T09:16:46.743Z,77.39
2023-03-10T09:19:15.763Z,74.83
2023-03-10T09:21:44.825Z,70.93
2023-03-10T09:24:13.767Z,75.88
2023-03-10T09:26:44.704Z,70.33
2023-03-10T09:29:15.513Z,69.58
2023-03-10T09:31:45.388Z,67.78
2023-03-10T09:34:14.326Z,66.11
2023-03-10T09:36:43.597Z,66.32
2023-03-10T09:39:12.496Z,67.69
2023-03-10T09:42:36.430Z,68.67
2023-03-10T09:45:27.895Z,64.67
2023-03-10T09:48:21.035Z,66.10
2023-03-10T09:50:52.476Z,63.18
2023-03-10T09:53:45.309Z,63.06
2023-03-10T09:56:18.137Z,63.52
2023-03-10T09:58:51.126Z,62.40
2023-03-10T10:01:26.286Z,64.60
2023-03-10T10:04:00.666Z,62.92
2023-03-10T10:06:34.450Z,63.09
2023-03-10T10:09:07.175Z,64.55
2023-03-10T10:11:37.686Z,62.27
2023-03-10T10:14:28.593Z,60.61
2023-03-10T10:17:09.985Z,58.76
2023-03-10T10:19:41.165Z,58.83
2023-03-10T10:22:20.534Z,58.21
2023-03-10T10:25:13.506Z,58.82
2023-03-10T10:27:45.412Z,59.55
2023-03-10T10:30:31.681Z,57.07
2023-03-10T10:33:04.797Z,59.02
2023-03-10T10:35:36.471Z,58.89
2023-03-10T10:38:08.090Z,58.83
2023-03-10T10:40:50.103Z,57.09
2023-03-10T10:43:21.215Z,55.74
2023-03-10T10:45:55.857Z,56.43
2023-03-10T10:48:41.775Z,59.00
2023-03-10T10:51:27.261Z,60.03
2023-03-10T10:53:56.659Z,55.76
2023-03-10T10:56:25.834Z,54.91
2023-03-10T10:59:08.181Z,55.08
2023-03-10T11:01:54.508Z,54.85
2023-03-10T11:04:28.017Z,54.09
2023-03-10T11:07:13.164Z,51.89
2023-03-10T11:09:42.471Z,53.37
2023-03-10T11:12:22.045Z,50.67
2023-03-10T11:15:11.610Z,52.15
2023-03-10T11:17:48.571Z,50.03
2023-03-10T11:20:29.792Z,51.25
2023-03-10T11:23:12.974Z,51.42
2023-03-10T11:25:47.938Z,50.27
2023-03-10T11:28:38.045Z,51.15
2023-03-10T11:31:22.551Z,51.95
2023-03-10T11:34:01.531Z,51.50
2023-03-10T11:36:55.010Z,49.74
2023-03-10T11:39:35.194Z,49.90
2023-03-10T11:42:12.207Z,49.97
2023-03-10T11:44:51.857Z,48.33
2023-03-10T11:47:33.223Z,47.06
2023-03-10T11:50:16.021Z,48.67
2023-03-10T11:52:47.831Z,47.66
2023-03-10T11:55:21.528Z,47.15
2023-03-10T11:57:54.300Z,44.38
2023-03-10T12:00:33.229Z,43.19
2023-03-10T12:03:13.726Z,40.41
2023-03-10T12:05:52.008Z,40.29
2023-03-10T12:08:26.255Z,40.44
2023-03-10T12:10:57.120Z,39.86
2023-03-10T12:13:29.053Z,39.00
2023-03-10T12:16:02.128Z,38.74
2023-03-10T12:18:31.209Z,38.81
2023-03-10T12:21:19.907Z,38.18
2023-03-10T12:23:52.773Z,37.53
2023-03-10T12:27:03.386Z,39.65
2023-03-10T12:29:43.710Z,40.17
2023-03-10T12:32:47.401Z,40.80
2023-03-10T12:35:36.669Z,42.56
2023-03-10T12:38:41.027Z,42.57
2023-03-10T12:41:12.071Z,41.99
2023-03-10T12:44:25.214Z,41.63
2023-03-10T12:47:00.902Z,40.96
2023-03-10T12:49:36.935Z,41.75
2023-03-10T12:52:23.377Z,41.83
2023-03-10T12:55:15.358Z,42.32
2023-03-10T12:57:59.349Z,40.57
2023-03-10T13:00:40.416Z,40.21
2023-03-10T13:03:25.989Z,37.96
2023-03-10T13:06:07.321Z,36.36
2023-03-10T13:08:44.801Z,38.39
2023-03-10T13:11:28.846Z,38.82
2023-03-10T13:14:03.022Z,39.06
2023-03-10T13:16:33.576Z,37.38
2023-03-10T13:19:03.758Z,36.43
2023-03-10T13:21:35.762Z,35.89
2023-03-10T13:24:24.454Z,34.16
2023-03-10T13:27:05.888Z,33.34
2023-03-10T13:29:36.389Z,32.75
2023-03-10T13:32:06.575Z,31.58
2023-03-10T13:34:36.842Z,33.43
2023-03-10T13:37:08.354Z,31.72
2023-03-10T13:39:37.570Z,32.61
2023-03-10T13:42:28.428Z,30.81
2023-03-10T13:45:14.331Z,29.54
2023-03-10T13:47:44.441Z,28.41
2023-03-10T13:50:17.158Z,28.94
2023-03-10T13:52:57.265Z,28.56
2023-03-10T13:55:26.868Z,28.34
2023-03-10T13:57:56.862Z,28.68
2023-03-10T14:00:28.574Z,28.97
2023-03-10T14:02:58.181Z,30.03
2023-03-10T14:05:46.116Z,30.76
2023-03-10T14:08:27.872Z,31.73
2023-03-10T14:11:33.436Z,33.12
2023-03-10T14:14:05.337Z,30.14
2023-03-10T14:16:54.182Z,26.73
2023-03-10T14:19:50.044Z,28.40
2023-03-10T14:22:35.366Z,29.94
2023-03-10T14:25:10.845Z,31.62
2023-03-10T14:27:43.136Z,33.81
2023-03-10T14:30:22.108Z,34.64
2023-03-10T14:32:52.736Z,32.78
2023-03-10T14:35:24.175Z,34.64
2023-03-10T14:37:54.367Z,33.71
2023-03-10T14:40:28.302Z,33.48
2023-03-10T14:43:02.403Z,33.89
2023-03-10T14:45:34.298Z,34.84
2023-03-10T14:48:13.032Z,34.62
2023-03-10T14:50:42.141Z,34.67
2023-03-10T14:53:13.767Z,34.86
2023-03-10T14:55:44.758Z,34.28
2023-03-10T14:58:17.853Z,35.34
2023-03-10T15:00:46.851Z,35.34
2023-03-10T15:03:17.392Z,36.48
2023-03-10T15:05:48.978Z,38.29
2023-03-10T15:08:18.867Z,40.28
2023-03-10T15:10:51.018Z,41.19
2023-03-10T15:13:25.331Z,41.92
2023-03-10T15:15:54.388Z,42.60
2023-03-10T15:18:27.296Z,43.06
2023-03-10T15:20:59.032Z,44.40
2023-03-10T15:23:29.246Z,44.65
2023-03-10T15:26:02.869Z,44.08
2023-03-10T15:28:31.935Z,44.86
2023-03-10T15:31:00.837Z,45.79
2023-03-10T15:33:31.274Z,45.52
2023-03-10T15:36:00.885Z,46.00
2023-03-10T15:38:29.977Z,46.80
2023-03-10T15:40:59.089Z,48.44
2023-03-10T15:43:28.137Z,52.90
2023-03-10T15:45:57.116Z,59.53
2023-03-10T15:48:26.257Z,68.48
2023-03-10T15:50:56.503Z,80.62
2023-03-10T15:53:25.638Z,90.72
2023-03-10T15:55:56.287Z,100.00
2023-03-10T15:58:25.165Z,100.00
2023-03-10T16:00:54.037Z,100.00
2023-03-10T16:03:22.992Z,100.00
2023-03-10T16:05:51.971Z,100.00
2023-03-10T16:08:22.303Z,100.00
2023-03-10T16:10:55.464Z,100.00
2023-03-10T16:13:25.033Z,100.00
2023-03-10T16:15:54.123Z,100.00
2023-03-10T16:18:23.167Z,100.00
2023-03-10T16:20:59.558Z,100.00
2023-03-10T16:23:33.910Z,100.00
2023-03-10T16:26:09.487Z,100.00
2023-03-10T16:28:41.933Z,100.00
2023-03-10T16:31:13.085Z,100.00
2023-03-10T16:33:42.820Z,100.00
2023-03-10T16:36:17.073Z,100.00
2023-03-10T16:38:48.234Z,100.00
2023-03-10T16:41:17.819Z,100.00
2023-03-10T16:43:47.456Z,100.00
2023-03-10T16:46:20.412Z,100.00
2023-03-10T16:48:49.977Z,100.00
2023-03-10T16:51:23.737Z,100.00
2023-03-10T16:53:55.938Z,100.00
2023-03-10T16:56:26.204Z,100.00
2023-03-10T16:58:55.922Z,100.00
2023-03-10T17:01:25.766Z,100.00
2023-03-10T17:03:55.533Z,100.00
2023-03-10T17:06:28.561Z,100.00
2023-03-10T17:09:00.818Z,100.00
2023-03-10T17:11:33.130Z,100.00
2023-03-10T17:14:06.149Z,100.00
2023-03-10T17:16:39.630Z,100.00
2023-03-10T17:19:12.585Z,100.00
2023-03-10T17:21:45.898Z,100.00
2023-03-10T17:24:19.568Z,100.00
2023-03-10T17:26:48.806Z,100.00
2023-03-10T17:29:18.039Z,100.00
2023-03-10T17:31:50.288Z,100.00
2023-03-10T17:34:20.457Z,100.00
2023-03-10T17:36:51.471Z,100.00
2023-03-10T17:39:24.038Z,100.00
2023-03-10T17:41:54.415Z,100.00
2023-03-10T17:44:23.393Z,100.00
2023-03-10T17:46:55.908Z,100.00
2023-03-10T17:49:25.126Z,100.00
2023-03-10T17:51:54.185Z,100.00
2023-03-10T17:54:24.537Z,100.00
2023-03-10T17:56:53.562Z,100.00
2023-03-10T17:59:24.586Z,100.00
2023-03-10T18:01:53.571Z,100.00
2023-03-10T18:04:22.775Z,100.00
2023-03-10T18:06:51.850Z,100.00
2023-03-10T18:09:20.937Z,100.00
2023-03-10T18:11:51.465Z,100.00
2023-03-10T18:14:20.388Z,100.00
2023-03-10T18:16:49.393Z,100.00
2023-03-10T18:19:21.455Z,100.00
2023-03-10T18:21:52.470Z,100.00
2023-03-10T18:24:22.425Z,100.00
2023-03-10T18:26:56.193Z,100.00
2023-03-10T18:29:25.161Z,100.00
2023-03-10T18:32:02.309Z,100.00
2023-03-10T18:34:31.451Z,100.00
2023-03-10T18:37:02.420Z,100.00
2023-03-10T18:39:31.517Z,100.00
2023-03-10T18:42:01.974Z,100.00
2023-03-10T18:44:31.001Z,100.00
2023-03-10T18:47:02.387Z,100.00
2023-03-10T18:49:31.406Z,100.00
2023-03-10T18:52:00.723Z,100.00
2023-03-10T18:54:32.741Z,100.00
2023-03-10T18:57:03.394Z,100.00
2023-03-10T18:59:32.386Z,100.00
2023-03-10T19:02:01.541Z,100.00
2023-03-10T19:04:30.524Z,100.00
2023-03-10T19:06:59.574Z,100.00
2023-03-10T19:09:28.619Z,100.00
2023-03-10T19:11:59.760Z,100.00
2023-03-10T19:14:30.245Z,100.00
2023-03-10T19:16:59.343Z,100.00
2023-03-10T19:19:29.307Z,100.00
2023-03-10T19:21:58.277Z,100.00
2023-03-10T19:24:27.351Z,100.00
2023-03-10T19:26:56.755Z,100.00
2023-03-10T19:29:25.862Z,100.00
2023-03-10T19:31:56.418Z,100.00
2023-03-10T19:34:25.636Z,100.00
2023-03-10T19:36:54.623Z,100.00
2023-03-10T19:39:28.373Z,100.00
2023-03-10T19:41:57.324Z,100.00
2023-03-10T19:44:27.396Z,100.00
2023-03-10T19:46:57.763Z,100.00
2023-03-10T19:49:26.866Z,100.00
2023-03-10T19:51:55.864Z,100.00
2023-03-10T19:54:24.936Z,100.00
2023-03-10T19:56:53.973Z,100.00
2023-03-10T19:59:25.042Z,100.00
2023-03-10T20:01:54.418Z,100.00
2023-03-10T20:04:24.900Z,100.00
2023-03-10T20:06:53.953Z,100.00
2023-03-10T20:09:25.819Z,100.00
2023-03-10T20:11:54.849Z,100.00
2023-03-10T20:14:24.078Z,100.00
2023-03-10T20:16:53.211Z,100.00
2023-03-10T20:19:22.954Z,100.00
2023-03-10T20:21:53.308Z,100.00
2023-03-10T20:24:22.322Z,100.00
2023-03-10T20:26:51.248Z,100.00
2023-03-10T20:29:20.807Z,100.00
2023-03-10T20:31:50.195Z,100.00
2023-03-10T20:34:22.115Z,100.00
2023-03-10T20:36:52.758Z,100.00
2023-03-10T20:39:22.108Z,100.00
2023-03-10T20:41:51.639Z,100.00
2023-03-10T20:44:20.584Z,100.00
2023-03-10T20:46:49.750Z,100.00
2023-03-10T20:49:18.645Z,100.00
2023-03-10T20:51:47.584Z,100.00
2023-03-10T20:54:18.253Z,100.00
2023-03-10T20:56:47.149Z,100.00
2023-03-10T20:59:16.175Z,100.00
2023-03-10T21:01:45.130Z,100.00
2023-03-10T21:04:15.009Z,100.00
2023-03-10T21:06:43.985Z,100.00
2023-03-10T21:09:12.933Z,100.00
2023-03-10T21:11:43.358Z,100.00
2023-03-10T21:14:12.490Z,100.00
2023-03-10T21:16:42.175Z,100.00
2023-03-10T21:19:14.229Z,100.00
2023-03-10T21:21:43.567Z,100.00
2023-03-10T21:24:14.258Z,100.00
2023-03-10T21:26:46.601Z,100.00
2023-03-10T21:29:15.910Z,100.00
2023-03-10T21:31:44.892Z,100.00
2023-03-10T21:34:14.073Z,100.00
2023-03-10T21:36:46.512Z,100.00
2023-03-10T21:39:15.431Z,100.00
2023-03-10T21:41:46.004Z,100.00
2023-03-10T21:44:14.997Z,100.00
2023-03-10T21:46:46.255Z,100.00
2023-03-10T21:49:15.779Z,100.00
2023-03-10T21:51:44.737Z,100.00
2023-03-10T21:54:13.736Z,100.00
2023-03-10T21:56:42.683Z,100.00
2023-03-10T21:59:13.434Z,100.00
2023-03-10T22:01:42.367Z,100.00
2023-03-10T22:04:13.612Z,100.00
2023-03-10T22:06:42.665Z,100.00
2023-03-10T22:09:11.619Z,100.00
2023-03-10T22:11:40.546Z,100.00
2023-03-10T22:14:09.474Z,100.00
2023-03-10T22:16:39.822Z,100.00
2023-03-10T22:19:08.782Z,100.00
2023-03-10T22:21:37.685Z,100.00
2023-03-10T22:24:07.085Z,100.00
2023-03-10T22:26:36.093Z,100.00
2023-03-10T22:29:04.990Z,100.00
2023-03-10T22:31:33.962Z,100.00
2023-03-10T22:34:05.469Z,100.00
2023-03-10T22:36:34.748Z,100.00
2023-03-10T22:39:03.889Z,100.00
2023-03-10T22:41:38.379Z,100.00
2023-03-10T22:44:07.551Z,100.00
2023-03-10T22:46:36.799Z,100.00
2023-03-10T22:49:07.219Z,100.00
2023-03-10T22:51:36.268Z,100.00
2023-03-10T22:54:05.430Z,100.00
2023-03-10T22:56:34.465Z,100.00
2023-03-10T22:59:03.973Z,100.00
2023-03-10T23:01:33.182Z,100.00
2023-03-10T23:04:02.212Z,100.00
2023-03-10T23:06:35.499Z,100.00
2023-03-10T23:09:06.166Z,100.00
2023-03-10T23:11:35.622Z,100.00
2023-03-10T23:14:04.642Z,100.00
2023-03-10T23:16:36.566Z,100.00
2023-03-10T23:19:08.457Z,100.00
2023-03-10T23:21:39.248Z,100.00
2023-03-10T23:24:08.623Z,100.00
2023-03-10T23:26:37.708Z,100.00
2023-03-10T23:29:07.504Z,100.00
2023-03-10T23:31:36.800Z,100.00
2023-03-10T23:34:05.848Z,100.00
2023-03-10T23:36:39.070Z,100.00
2023-03-10T23:39:11.166Z,100.00
2023-03-10T23:41:40.285Z,100.00
2023-03-10T23:44:09.336Z,100.00
2023-03-10T23:46:38.270Z,100.00
2023-03-10T23:49:07.189Z,100.00
2023-03-10T23:51:36.160Z,100.00
2023-03-10T23:54:09.332Z,100.00
2023-03-10T23:56:38.441Z,100.00
2023-03-10T23:59:07.350Z,100.00
